Time;durP1;ratioP1;P1;durP2;ratioP2;P2;SDS_P1;SDS_P2;PMS_P1;PMS_P2;Temp;Humidity;BMP_temperature;BMP_pressure;BME280_temperature;BME280_humidity;BME280_pressure;Samples;Min_cycle;Max_cycle;Signal;HPM_P1;HPM_P2
2023/12/29 00:01:10;;;;;;;1.20;1.00;;;;;;;6.82;100.00;98105.44;6112512;19;20515;-71
2023/12/29 00:03:11;;;;;;;1.40;0.98;;;;;;;6.81;100.00;98105.81;6110744;19;20031;-71
2023/12/29 00:05:11;;;;;;;2.45;1.38;;;;;;;6.81;100.00;98120.34;6112638;19;20006;-71
2023/12/29 00:07:12;;;;;;;1.75;1.13;;;;;;;6.83;100.00;98117.22;6111878;19;20011;-71
2023/12/29 00:09:14;;;;;;;1.65;1.10;;;;;;;6.87;100.00;98098.84;6112755;19;20843;-71
2023/12/29 00:11:19;;;;;;;2.17;1.17;;;;;;;6.94;100.00;98093.47;6112299;19;20115;-71
2023/12/29 00:13:22;;;;;;;0.95;0.95;;;;;;;6.88;100.00;98083.97;6110019;19;20002;-71
2023/12/29 00:15:22;;;;;;;1.48;1.00;;;;;;;6.84;100.00;98080.31;6111285;19;20518;-73
2023/12/29 00:17:23;;;;;;;1.50;1.30;;;;;;;6.73;100.00;98089.16;6111481;19;20013;-71
2023/12/29 00:19:23;;;;;;;1.25;1.00;;;;;;;6.83;100.00;98087.00;6111866;19;20010;-71
2023/12/29 00:21:23;;;;;;;0.80;0.80;;;;;;;6.87;100.00;98060.34;6110969;19;20003;-71
2023/12/29 00:23:24;;;;;;;1.20;0.80;;;;;;;6.96;100.00;98063.69;6110713;19;20002;-71
2023/12/29 00:25:24;;;;;;;1.30;1.05;;;;;;;6.92;100.00;98046.31;6110794;19;20312;-71
2023/12/29 00:27:24;;;;;;;0.90;0.90;;;;;;;6.89;100.00;98074.53;6110302;19;20006;-71
2023/12/29 00:29:25;;;;;;;1.00;0.90;;;;;;;6.88;100.00;98064.72;6111817;19;20030;-71
2023/12/29 00:31:25;;;;;;;0.90;0.90;;;;;;;6.85;100.00;98054.41;6110394;19;20038;-71
2023/12/29 00:33:26;;;;;;;1.10;0.80;;;;;;;6.97;100.00;98059.78;6110949;19;20423;-71
2023/12/29 00:35:26;;;;;;;1.08;0.90;;;;;;;6.89;100.00;98066.28;6110497;19;20494;-71
2023/12/29 00:37:27;;;;;;;0.85;0.85;;;;;;;6.81;100.00;98053.56;6110758;19;20010;-71
2023/12/29 00:39:30;;;;;;;1.20;1.00;;;;;;;6.82;100.00;98055.94;6110865;19;20034;-71
2023/12/29 00:41:32;;;;;;;1.10;1.00;;;;;;;6.99;100.00;98044.47;6110865;19;20481;-71
2023/12/29 00:43:32;;;;;;;0.98;0.88;;;;;;;7.04;100.00;98055.19;6109975;19;20094;-71
2023/12/29 00:45:35;;;;;;;0.82;0.80;;;;;;;6.96;100.00;98047.19;6110802;19;20007;-71
2023/12/29 00:47:36;;;;;;;1.65;0.88;;;;;;;6.99;100.00;98051.94;6110982;19;20074;-71
2023/12/29 00:49:39;;;;;;;1.02;0.90;;;;;;;6.94;100.00;98043.97;6100118;19;19998;-71
2023/12/29 00:51:41;;;;;;;0.77;0.77;;;;;;;6.96;100.00;98036.97;6109222;19;19995;-71
2023/12/29 00:53:41;;;;;;;0.82;0.82;;;;;;;6.94;100.00;98035.72;6109807;19;20003;-71
2023/12/29 00:55:41;;;;;;;1.33;0.90;;;;;;;6.92;100.00;98036.09;6110053;19;20026;-71
2023/12/29 00:57:41;;;;;;;0.95;0.80;;;;;;;6.89;100.00;98022.28;6108595;19;20019;-71
2023/12/29 00:59:43;;;;;;;0.85;0.82;;;;;;;6.91;100.00;98029.00;6107252;19;20010;-71
2023/12/29 01:01:44;;;;;;;1.13;0.95;;;;;;;6.88;100.00;98031.72;6108522;19;20006;-71
2023/12/29 01:03:44;;;;;;;2.22;1.13;;;;;;;6.93;100.00;98012.13;6109816;19;20014;-71
2023/12/29 01:05:45;;;;;;;0.93;0.85;;;;;;;6.91;100.00;98007.00;6110260;19;20002;-71
2023/12/29 01:07:45;;;;;;;1.95;0.90;;;;;;;6.98;100.00;98009.09;6106908;19;20007;-71
2023/12/29 01:09:45;;;;;;;0.98;0.85;;;;;;;6.98;100.00;98012.63;6108151;19;20553;-71
2023/12/29 01:11:45;;;;;;;1.13;0.93;;;;;;;6.93;100.00;98001.94;6107034;19;19998;-71
2023/12/29 01:13:46;;;;;;;1.55;1.10;;;;;;;6.84;100.00;98008.84;6110454;19;20007;-71
2023/12/29 01:15:46;;;;;;;1.27;1.13;;;;;;;6.78;100.00;98013.81;6110915;19;20383;-71
2023/12/29 01:17:46;;;;;;;1.17;1.08;;;;;;;6.74;100.00;98010.22;6109699;19;20003;-71
2023/12/29 01:19:47;;;;;;;1.45;1.02;;;;;;;6.81;100.00;98015.06;6110290;19;20455;-71
2023/12/29 01:21:47;;;;;;;1.35;0.95;;;;;;;6.85;100.00;98007.66;6110076;19;20692;-71
2023/12/29 01:23:47;;;;;;;1.65;1.20;;;;;;;6.86;100.00;98006.50;6108149;19;20023;-71
2023/12/29 01:25:48;;;;;;;1.27;1.00;;;;;;;6.88;100.00;98013.25;6110400;19;20010;-71
2023/12/29 01:27:48;;;;;;;1.20;0.98;;;;;;;6.83;100.00;98004.50;6109580;19;20015;-71
2023/12/29 01:29:48;;;;;;;1.48;1.15;;;;;;;6.87;100.00;98008.09;6109865;19;20369;-71
2023/12/29 01:31:48;;;;;;;0.88;0.88;;;;;;;6.89;100.00;98003.03;6107603;19;20012;-71
2023/12/29 01:33:49;;;;;;;1.15;1.00;;;;;;;7.04;100.00;97991.94;6109404;19;20015;-71
2023/12/29 01:35:49;;;;;;;1.73;1.10;;;;;;;7.02;100.00;98005.22;6109496;19;20010;-71
2023/12/29 01:37:49;;;;;;;2.05;1.10;;;;;;;7.08;100.00;98018.69;6105068;19;20434;-71
2023/12/29 01:39:50;;;;;;;1.20;1.10;;;;;;;7.16;100.00;97996.44;6101272;19;20007;-71
2023/12/29 01:41:50;;;;;;;1.20;1.10;;;;;;;7.14;100.00;98001.53;6105646;19;20009;-71
2023/12/29 01:44:13;;;;;;;2.13;1.17;;;;;;;7.19;100.00;98019.66;6101296;19;20402;-71
2023/12/29 01:46:13;;;;;;;1.67;1.58;;;;;;;7.17;100.00;98011.78;6004117;19;2006050;-71
2023/12/29 01:48:14;;;;;;;1.70;1.20;;;;;;;7.20;100.00;98010.25;6105699;19;19999;-71
2023/12/29 01:50:15;;;;;;;1.58;1.35;;;;;;;7.08;100.00;98008.50;6091868;19;20002;-71
2023/12/29 01:52:19;;;;;;;2.33;1.10;;;;;;;7.05;100.00;98017.47;6086697;19;19998;-71
2023/12/29 01:54:21;;;;;;;1.85;1.30;;;;;;;7.07;100.00;98012.41;6096836;19;20031;-71
2023/12/29 01:56:21;;;;;;;1.95;1.20;;;;;;;7.01;100.00;98016.59;6097583;19;20391;-71
2023/12/29 01:58:21;;;;;;;1.33;1.17;;;;;;;6.94;100.00;98022.78;6100645;19;20010;-71
2023/12/29 02:00:22;;;;;;;2.10;1.10;;;;;;;6.89;100.00;98017.59;6101284;19;20496;-71
2023/12/29 02:02:22;;;;;;;1.20;1.10;;;;;;;6.84;100.00;98011.59;6096216;19;20038;-71
2023/12/29 02:04:26;;;;;;;2.22;1.20;;;;;;;6.80;100.00;98019.78;6099997;19;20015;-71
2023/12/29 02:06:27;;;;;;;1.88;1.35;;;;;;;6.75;100.00;98017.31;6099736;19;20022;-71
2023/12/29 02:08:28;;;;;;;1.85;1.75;;;;;;;6.80;100.00;98013.47;6101247;19;20038;-71
2023/12/29 02:10:28;;;;;;;1.63;1.10;;;;;;;6.89;100.00;98009.34;6101792;19;20086;-71
2023/12/29 02:12:29;;;;;;;1.73;1.20;;;;;;;6.89;100.00;98016.78;6100057;19;20014;-71
2023/12/29 02:14:29;;;;;;;1.90;1.10;;;;;;;6.86;100.00;97995.50;6100384;19;20482;-71
2023/12/29 02:16:56;;;;;;;1.70;1.30;;;;;;;6.82;100.00;97997.41;6099990;19;20010;-71
2023/12/29 02:18:59;;;;;;;1.98;1.10;;;;;;;6.79;100.00;97995.41;6100674;19;20006;-71
2023/12/29 02:21:02;;;;;;;1.40;1.20;;;;;;;6.81;100.00;97998.56;6099607;19;20016;-71
2023/12/29 02:23:03;;;;;;;1.40;1.13;;;;;;;6.78;100.00;97997.31;6097967;19;20383;-71
2023/12/29 02:25:05;;;;;;;1.52;1.15;;;;;;;6.95;100.00;97996.06;6100174;19;20018;-71
2023/12/29 02:27:18;;;;;;;1.70;1.30;;;;;;;7.01;100.00;97992.66;6100207;19;20466;-71
2023/12/29 02:29:20;;;;;;;2.22;1.40;;;;;;;7.03;100.00;97986.78;6100185;19;20027;-71
2023/12/29 02:31:22;;;;;;;;;;;;;;;7.14;100.00;97990.53;6100183;19;20018;-71
2023/12/29 02:33:25;;;;;;;1.40;1.30;;;;;;;7.15;100.00;97981.09;6099644;19;19931;-71
2023/12/29 02:35:28;;;;;;;1.23;1.08;;;;;;;7.11;100.00;97991.25;6100216;19;20331;-71
2023/12/29 02:37:30;;;;;;;1.33;1.20;;;;;;;7.01;100.00;97989.91;6099970;19;20074;-71
2023/12/29 02:39:31;;;;;;;2.03;1.25;;;;;;;6.97;100.00;97977.25;6100139;19;20374;-71
2023/12/29 02:41:31;;;;;;;1.52;1.40;;;;;;;7.01;100.00;97975.34;6098228;19;20003;-71
2023/12/29 02:43:32;;;;;;;1.88;1.35;;;;;;;7.01;100.00;97980.84;6100137;19;20007;-71
2023/12/29 02:45:32;;;;;;;1.60;1.40;;;;;;;7.12;100.00;97989.31;6099765;19;20422;-71
2023/12/29 02:47:33;;;;;;;1.73;1.40;;;;;;;7.12;100.00;97972.81;6099622;19;20374;-71
2023/12/29 02:49:33;;;;;;;1.70;1.42;;;;;;;7.17;100.00;97980.72;6102107;19;20018;-71
2023/12/29 02:51:33;;;;;;;1.40;1.10;;;;;;;7.17;100.00;97973.28;6107118;19;20527;-71
2023/12/29 02:53:34;;;;;;;2.17;1.38;;;;;;;7.12;100.00;97979.09;6106884;19;19995;-71
2023/12/29 02:55:34;;;;;;;3.20;1.45;;;;;;;7.15;100.00;97975.59;6108157;19;20072;-71
2023/12/29 02:57:35;;;;;;;1.63;1.30;;;;;;;7.28;100.00;97970.69;6107437;19;19999;-71
2023/12/29 02:59:37;;;;;;;1.40;1.10;;;;;;;7.31;100.00;97959.75;6107158;19;20463;-71
2023/12/29 03:01:37;;;;;;;2.05;1.48;;;;;;;7.25;100.00;97969.47;6106962;19;20007;-71
2023/12/29 03:03:39;;;;;;;2.85;1.45;;;;;;;7.30;100.00;97966.41;6107096;19;20495;-71
2023/12/29 03:05:40;;;;;;;1.63;1.40;;;;;;;7.26;100.00;97962.00;6107299;19;20025;-71
2023/12/29 03:07:40;;;;;;;1.85;1.40;;;;;;;7.27;100.00;97964.38;6107785;19;20334;-71
2023/12/29 03:09:41;;;;;;;2.38;1.58;;;;;;;7.36;100.00;97955.88;6107005;19;20010;-71
2023/12/29 03:11:41;;;;;;;2.30;1.50;;;;;;;7.39;100.00;97968.13;6107241;19;20013;-71
2023/12/29 03:13:41;;;;;;;2.15;1.60;;;;;;;7.46;100.00;97974.53;6105650;19;20333;-71
2023/12/29 03:15:42;;;;;;;1.75;1.40;;;;;;;7.53;100.00;97949.88;6106558;19;20010;-71
2023/12/29 03:17:42;;;;;;;1.75;1.27;;;;;;;7.56;100.00;97962.09;6107507;19;20044;-72
2023/12/29 03:19:42;;;;;;;2.78;1.73;;;;;;;7.65;100.00;97957.13;6107495;19;20030;-71
2023/12/29 03:21:43;;;;;;;1.40;1.30;;;;;;;7.61;100.00;97961.75;6105048;19;20332;-71
2023/12/29 03:23:43;;;;;;;3.40;1.33;;;;;;;7.59;100.00;97951.13;6107223;19;20039;-71
2023/12/29 03:25:44;;;;;;;2.55;1.45;;;;;;;7.62;100.00;97951.56;6106703;19;20003;-71
2023/12/29 03:27:44;;;;;;;2.00;1.35;;;;;;;7.53;100.00;97952.63;6106326;19;20038;-71
2023/12/29 03:29:45;;;;;;;2.22;1.52;;;;;;;7.48;100.00;97952.16;6106647;19;20015;-71
2023/12/29 03:31:45;;;;;;;1.55;1.35;;;;;;;7.50;100.00;97952.56;6106764;19;20114;-71
2023/12/29 03:33:46;;;;;;;3.20;1.60;;;;;;;7.51;100.00;97959.66;6105640;19;20010;-71
2023/12/29 03:35:46;;;;;;;2.67;1.50;;;;;;;7.50;100.00;97953.34;6109848;19;20010;-71
2023/12/29 03:37:47;;;;;;;2.45;1.77;;;;;;;7.47;100.00;97976.13;6111468;19;20014;-71
2023/12/29 03:39:47;;;;;;;1.83;1.40;;;;;;;7.42;100.00;97970.91;6112066;19;20014;-71
2023/12/29 03:41:48;;;;;;;2.25;1.63;;;;;;;7.42;100.00;97967.38;6111224;19;20520;-71
2023/12/29 03:43:48;;;;;;;2.03;1.30;;;;;;;7.41;100.00;97963.03;6111937;19;20014;-71
2023/12/29 03:45:48;;;;;;;2.88;1.30;;;;;;;7.33;100.00;97968.44;6111800;19;20758;-71
2023/12/29 03:47:48;;;;;;;3.67;1.77;;;;;;;7.30;100.00;97963.69;6111009;19;20011;-71
2023/12/29 03:49:49;;;;;;;2.03;1.52;;;;;;;7.39;100.00;97957.91;6111511;19;20006;-71
2023/12/29 03:51:49;;;;;;;3.67;1.90;;;;;;;7.31;100.00;97940.50;6111419;19;20003;-71
2023/12/29 03:53:50;;;;;;;2.92;1.60;;;;;;;7.39;100.00;97944.16;6111312;19;20368;-71
2023/12/29 03:55:50;;;;;;;1.65;1.23;;;;;;;7.41;100.00;97935.50;6111459;19;20010;-71
2023/12/29 03:57:50;;;;;;;2.10;1.63;;;;;;;7.37;100.00;97924.47;6112244;19;20006;-72
2023/12/29 03:59:50;;;;;;;4.00;1.60;;;;;;;7.25;100.00;97908.16;6111265;19;20002;-71
2023/12/29 04:01:51;;;;;;;2.72;1.70;;;;;;;7.29;100.00;97906.25;6110821;19;20397;-71
2023/12/29 04:03:51;;;;;;;2.17;1.42;;;;;;;7.42;100.00;97913.13;6111054;19;20003;-71
2023/12/29 04:05:51;;;;;;;1.90;1.48;;;;;;;7.43;100.00;97898.19;6111260;19;20006;-71
2023/12/29 04:07:52;;;;;;;1.80;1.60;;;;;;;7.38;100.00;97898.53;6111224;19;20462;-71
2023/12/29 04:09:52;;;;;;;3.03;1.70;;;;;;;7.33;100.00;97901.59;6111655;19;20013;-71
2023/12/29 04:11:52;;;;;;;2.78;1.60;;;;;;;7.36;100.00;97911.06;6110593;19;20361;-71
2023/12/29 04:13:52;;;;;;;1.55;1.33;;;;;;;7.35;100.00;97891.00;6111362;19;19998;-71
2023/12/29 04:15:53;;;;;;;2.13;1.58;;;;;;;7.31;100.00;97901.16;6110656;19;20008;-71
2023/12/29 04:17:53;;;;;;;2.33;1.85;;;;;;;7.32;100.00;97902.75;6112649;19;20006;-71
2023/12/29 04:19:54;;;;;;;1.50;1.33;;;;;;;7.27;100.00;97887.34;6110586;19;20007;-71
2023/12/29 04:21:54;;;;;;;3.35;1.80;;;;;;;7.24;100.00;97888.09;6110082;19;20029;-71
2023/12/29 04:23:54;;;;;;;3.60;1.58;;;;;;;7.28;100.00;97880.69;6111161;19;20229;-71
2023/12/29 04:25:55;;;;;;;4.15;1.60;;;;;;;7.29;100.00;97865.78;6110962;19;20009;-71
2023/12/29 04:27:56;;;;;;;4.32;1.40;;;;;;;7.38;100.00;97892.22;6111311;19;20010;-71
2023/12/29 04:29:56;;;;;;;1.95;1.60;;;;;;;7.39;100.00;97886.34;6111148;19;20002;-71
2023/12/29 04:31:56;;;;;;;2.38;1.60;;;;;;;7.33;100.00;97863.06;6109547;19;20367;-71
2023/12/29 04:33:57;;;;;;;2.03;1.35;;;;;;;7.31;100.00;97871.69;6111316;19;19999;-71
2023/12/29 04:35:57;;;;;;;2.03;1.35;;;;;;;7.38;100.00;97868.25;6108459;19;20006;-71
2023/12/29 04:37:58;;;;;;;1.40;1.10;;;;;;;7.44;100.00;97855.75;6111467;19;20455;-71
2023/12/29 04:39:58;;;;;;;3.67;1.90;;;;;;;7.42;100.00;97858.06;6110200;19;20018;-71
2023/12/29 04:41:58;;;;;;;4.47;1.67;;;;;;;7.38;100.00;97854.50;6109539;19;20045;-72
2023/12/29 04:43:58;;;;;;;1.67;1.30;;;;;;;7.35;100.00;97860.72;6111330;19;20017;-71
2023/12/29 04:46:00;;;;;;;2.75;1.50;;;;;;;7.28;100.00;97872.44;6109032;19;20066;-71
2023/12/29 04:48:00;;;;;;;4.35;1.77;;;;;;;7.30;100.00;97897.63;6110502;19;20010;-71
2023/12/29 04:50:00;;;;;;;1.50;1.33;;;;;;;7.33;100.00;97887.84;6110913;19;20007;-71
2023/12/29 04:52:01;;;;;;;3.15;1.60;;;;;;;7.32;100.00;97889.78;6110805;19;20011;-71
2023/12/29 04:54:02;;;;;;;2.72;1.40;;;;;;;7.29;100.00;97890.53;6110229;19;20010;-71
2023/12/29 04:56:02;;;;;;;2.15;1.25;;;;;;;7.40;100.00;97887.16;6110195;19;20135;-71
2023/12/29 04:58:03;;;;;;;1.58;1.17;;;;;;;7.35;100.00;97902.00;6110551;19;20006;-71
2023/12/29 05:00:04;;;;;;;2.25;1.35;;;;;;;7.34;100.00;97892.16;6111233;19;20002;-71
2023/12/29 05:02:04;;;;;;;1.30;1.10;;;;;;;7.36;100.00;97884.31;6105791;19;20044;-71
2023/12/29 05:04:05;;;;;;;2.63;1.48;;;;;;;7.29;100.00;97871.28;6111225;19;19998;-71
2023/12/29 05:06:05;;;;;;;2.33;1.83;;;;;;;7.33;100.00;97880.38;6109561;19;19995;-71
2023/12/29 05:08:05;;;;;;;2.38;1.30;;;;;;;7.36;100.00;97875.28;6110544;19;20033;-71
2023/12/29 05:10:07;;;;;;;2.40;1.40;;;;;;;7.33;100.00;97876.81;6111000;19;20350;-71
2023/12/29 05:12:07;;;;;;;2.45;1.50;;;;;;;7.44;100.00;97875.00;6109901;19;20035;-71
2023/12/29 05:14:07;;;;;;;4.50;1.27;;;;;;;7.40;100.00;97874.19;6109589;19;20003;-71
2023/12/29 05:16:08;;;;;;;2.88;1.20;;;;;;;7.41;100.00;97874.97;6109280;19;20367;-71
2023/12/29 05:18:08;;;;;;;2.35;1.60;;;;;;;7.40;100.00;97876.13;6109740;19;20003;-71
2023/12/29 05:20:09;;;;;;;4.75;2.10;;;;;;;7.44;100.00;97865.97;6110921;19;19999;-72
2023/12/29 05:22:11;;;;;;;2.15;1.50;;;;;;;7.37;100.00;97871.38;6109147;19;20002;-71
2023/12/29 05:24:11;;;;;;;6.47;1.85;;;;;;;7.49;100.00;97866.44;6111278;19;20063;-71
2023/12/29 05:26:12;;;;;;;3.58;2.05;;;;;;;7.47;100.00;97856.97;6110154;19;20006;-71
2023/12/29 05:28:12;;;;;;;4.90;2.10;;;;;;;7.52;100.00;97853.88;6110866;19;20003;-71
2023/12/29 05:30:13;;;;;;;2.60;1.40;;;;;;;7.53;100.00;97867.28;6109381;19;20003;-71
2023/12/29 05:32:13;;;;;;;3.28;1.40;;;;;;;7.54;100.00;97860.63;6110055;19;20002;-71
2023/12/29 05:34:14;;;;;;;5.40;1.60;;;;;;;7.52;100.00;97840.13;6109648;19;20007;-71
2023/12/29 05:36:14;;;;;;;4.88;1.40;;;;;;;7.52;100.00;97840.13;6110205;19;20010;-71
2023/12/29 05:38:14;;;;;;;2.10;1.17;;;;;;;7.50;100.00;97848.75;6110400;19;20304;-71
2023/12/29 05:40:15;;;;;;;2.03;1.40;;;;;;;7.48;100.00;97848.34;6110044;19;20009;-71
2023/12/29 05:42:15;;;;;;;2.85;1.33;;;;;;;7.43;100.00;97839.59;6108756;19;20463;-71
2023/12/29 05:44:15;;;;;;;1.77;1.23;;;;;;;7.46;100.00;97853.44;6109643;19;20017;-71
2023/12/29 05:46:16;;;;;;;3.28;1.30;;;;;;;7.53;100.00;97828.75;6109758;19;20014;-71
2023/12/29 05:48:16;;;;;;;1.67;1.27;;;;;;;7.55;100.00;97842.94;6110774;19;20051;-71
2023/12/29 05:50:16;;;;;;;3.78;2.03;;;;;;;7.50;100.00;97848.75;6098870;19;20007;-71
2023/12/29 05:52:17;;;;;;;4.57;1.52;;;;;;;7.52;100.00;97845.63;6109755;19;20010;-71
2023/12/29 05:54:17;;;;;;;2.92;1.30;;;;;;;7.46;100.00;97842.41;6109408;19;20009;-71
2023/12/29 05:56:17;;;;;;;3.25;1.50;;;;;;;7.53;100.00;97842.53;6109570;19;20077;-71
2023/12/29 05:58:18;;;;;;;3.13;1.30;;;;;;;7.48;100.00;97828.28;6105400;19;20670;-71
2023/12/29 06:00:18;;;;;;;5.00;1.77;;;;;;;7.50;100.00;97823.97;6108637;19;20470;-71
2023/12/29 06:02:18;;;;;;;2.47;1.52;;;;;;;7.54;100.00;97835.06;6105989;19;20015;-71
2023/12/29 06:04:19;;;;;;;2.28;1.45;;;;;;;7.56;100.00;97833.50;6109904;19;20081;-71
2023/12/29 06:06:19;;;;;;;4.47;1.50;;;;;;;7.55;100.00;97839.38;6109039;19;20010;-71
2023/12/29 06:08:19;;;;;;;3.00;1.30;;;;;;;7.53;100.00;97830.69;6107951;19;20017;-71
2023/12/29 06:10:20;;;;;;;3.20;1.60;;;;;;;7.51;100.00;97855.84;6108009;19;20019;-71
2023/12/29 06:12:20;;;;;;;1.95;1.27;;;;;;;7.66;100.00;97847.78;6108995;19;20077;-71
2023/12/29 06:14:20;;;;;;;2.42;1.65;;;;;;;7.61;100.00;97843.38;6108855;19;20030;-71
2023/12/29 06:16:21;;;;;;;2.70;1.40;;;;;;;7.56;100.00;97868.50;6108766;19;20019;-71
2023/12/29 06:18:21;;;;;;;4.13;1.50;;;;;;;7.56;100.00;97880.31;6106734;19;20478;-71
2023/12/29 06:20:21;;;;;;;5.38;1.42;;;;;;;7.57;100.00;97873.63;6108349;19;20014;-71
2023/12/29 06:22:22;;;;;;;1.85;1.40;;;;;;;7.60;100.00;97889.38;6106865;19;20074;-71
2023/12/29 06:24:22;;;;;;;1.45;1.23;;;;;;;7.57;100.00;97876.38;6109288;19;20357;-71
2023/12/29 06:26:22;;;;;;;2.53;1.65;;;;;;;7.70;100.00;97887.97;6109091;19;20014;-71
2023/12/29 06:28:23;;;;;;;3.58;1.45;;;;;;;7.71;100.00;97884.06;6108090;19;20014;-71
2023/12/29 06:30:23;;;;;;;6.90;1.77;;;;;;;7.77;100.00;97877.03;6108336;19;20040;-71
2023/12/29 06:32:23;;;;;;;2.38;1.42;;;;;;;7.81;100.00;97896.38;6107184;19;20044;-71
2023/12/29 06:34:24;;;;;;;2.95;1.25;;;;;;;7.83;100.00;97883.00;6109227;19;20026;-71
2023/12/29 06:36:24;;;;;;;2.25;1.60;;;;;;;7.83;100.00;97903.06;6108130;19;20013;-71
2023/12/29 06:38:24;;;;;;;1.95;1.35;;;;;;;7.89;100.00;97903.56;6107710;19;19999;-71
2023/12/29 06:40:25;;;;;;;5.13;1.40;;;;;;;7.88;100.00;97889.00;6109056;19;20007;-71
2023/12/29 06:42:25;;;;;;;2.35;1.20;;;;;;;8.04;100.00;97877.78;6103901;19;20002;-71
2023/12/29 06:44:25;;;;;;;1.88;1.40;;;;;;;8.05;100.00;97887.63;6108881;19;20673;-71
2023/12/29 06:46:26;;;;;;;3.30;1.58;;;;;;;8.03;100.00;97891.94;6106948;19;20015;-71
2023/12/29 06:48:26;;;;;;;3.17;1.33;;;;;;;8.06;100.00;97883.69;6106674;19;20003;-71
2023/12/29 06:50:27;;;;;;;1.48;1.17;;;;;;;8.03;100.00;97891.94;6094661;19;20017;-72
2023/12/29 06:52:30;;;;;;;2.55;1.50;;;;;;;7.99;100.00;97883.59;6092237;19;20003;-71
2023/12/29 06:54:30;;;;;;;2.83;1.55;;;;;;;8.00;100.00;97865.91;6093583;19;20428;-71
2023/12/29 06:56:30;;;;;;;2.17;1.45;;;;;;;7.98;100.00;97871.00;6092904;19;20009;-71
2023/12/29 06:58:31;;;;;;;6.80;2.22;;;;;;;8.04;100.00;97864.00;6093878;19;19994;-71
2023/12/29 07:00:31;;;;;;;5.70;1.70;;;;;;;7.98;100.00;97859.97;6093920;19;20003;-71
2023/12/29 07:02:32;;;;;;;2.10;1.30;;;;;;;8.03;100.00;97856.13;6092931;19;20331;-71
2023/12/29 07:04:32;;;;;;;1.90;1.70;;;;;;;7.98;100.00;97872.97;6093404;19;20471;-71
2023/12/29 07:06:32;;;;;;;3.83;1.58;;;;;;;7.94;100.00;97872.13;6093553;19;19998;-71
2023/12/29 07:08:33;;;;;;;4.40;2.08;;;;;;;8.02;100.00;97882.06;6093624;19;20002;-71
2023/12/29 07:10:33;;;;;;;6.07;1.58;;;;;;;8.02;100.00;97887.56;6091910;19;20451;-71
2023/12/29 07:12:33;;;;;;;5.68;1.50;;;;;;;7.97;100.00;97885.16;6092601;19;20007;-71
2023/12/29 07:14:35;;;;;;;2.00;1.42;;;;;;;7.94;100.00;97888.63;6093339;19;20002;-71
2023/12/29 07:16:35;;;;;;;3.87;1.40;;;;;;;7.97;100.00;97887.91;6092304;19;20017;-71
2023/12/29 07:18:36;;;;;;;2.95;1.50;;;;;;;7.95;100.00;97893.00;6094237;19;20619;-71
2023/12/29 07:20:36;;;;;;;2.17;1.52;;;;;;;7.98;100.00;97900.50;6093102;19;20006;-71
2023/12/29 07:22:36;;;;;;;2.20;1.38;;;;;;;8.03;100.00;97894.69;6092792;19;20017;-71
2023/12/29 07:24:37;;;;;;;2.10;1.40;;;;;;;7.94;100.00;97881.16;6093361;19;20003;-71
2023/12/29 07:26:37;;;;;;;4.82;1.45;;;;;;;7.95;100.00;97884.75;6092465;19;20552;-71
2023/12/29 07:28:38;;;;;;;2.53;1.40;;;;;;;7.95;100.00;97884.75;6092768;19;20026;-71
2023/12/29 07:30:38;;;;;;;2.50;1.50;;;;;;;7.92;100.00;97879.97;6092850;19;20335;-71
2023/12/29 07:32:38;;;;;;;2.92;1.42;;;;;;;8.00;100.00;97890.69;6091222;19;20007;-71
2023/12/29 07:34:39;;;;;;;2.47;1.30;;;;;;;8.03;100.00;97909.25;6092351;19;20007;-71
2023/12/29 07:36:40;;;;;;;2.70;1.38;;;;;;;8.13;100.00;97894.81;6092153;19;20003;-71
2023/12/29 07:38:40;;;;;;;6.28;2.28;;;;;;;8.06;100.00;97880.94;6092534;19;20677;-71
2023/12/29 07:40:41;;;;;;;2.15;1.20;;;;;;;8.02;100.00;97873.78;6092477;19;20016;-71
2023/12/29 07:42:43;;;;;;;2.42;1.60;;;;;;;8.00;100.00;97885.19;6091603;19;20003;-71
2023/12/29 07:44:43;;;;;;;3.75;1.40;;;;;;;8.01;100.00;97874.97;6093245;19;20327;-71
2023/12/29 07:46:46;;;;;;;3.13;1.38;;;;;;;8.04;100.00;97877.78;6092790;19;20026;-71
2023/12/29 07:48:47;;;;;;;1.50;1.40;;;;;;;8.06;100.00;97882.91;6093299;19;20002;-71
2023/12/29 07:50:47;;;;;;;2.55;1.30;;;;;;;8.08;100.00;97889.63;6106203;19;20360;-71
2023/12/29 07:52:47;;;;;;;5.82;2.38;;;;;;;8.02;100.00;97902.13;6106476;19;20359;-71
2023/12/29 07:54:48;;;;;;;3.03;1.35;;;;;;;8.01;100.00;97897.78;6105647;19;20568;-71
2023/12/29 07:56:50;;;;;;;1.85;1.50;;;;;;;8.04;100.00;97886.03;6104578;19;20490;-71
2023/12/29 07:58:51;;;;;;;4.93;1.60;;;;;;;8.00;100.00;97892.66;6106698;19;20462;-71
2023/12/29 08:00:51;;;;;;;1.45;1.35;;;;;;;8.01;100.00;97877.72;6106566;19;20022;-71
2023/12/29 08:02:51;;;;;;;3.47;1.40;;;;;;;7.99;100.00;97880.84;6103559;19;20011;-71
2023/12/29 08:04:51;;;;;;;2.72;1.83;;;;;;;7.98;100.00;97879.25;6106829;19;20011;-71
2023/12/29 08:06:52;;;;;;;1.38;1.20;;;;;;;8.16;100.00;97876.72;6106662;19;20015;-71
2023/12/29 08:08:54;;;;;;;2.15;1.30;;;;;;;8.15;100.00;97886.94;6106937;19;20036;-71
2023/12/29 08:10:54;;;;;;;2.88;1.45;;;;;;;8.15;100.00;97897.16;6104778;19;20494;-71
2023/12/29 08:12:54;;;;;;;1.80;1.30;;;;;;;8.16;100.00;97888.53;6106599;19;20011;-71
2023/12/29 08:14:55;;;;;;;2.22;1.77;;;;;;;8.14;100.00;97895.59;6106177;19;20017;-71
2023/12/29 08:16:56;;;;;;;1.45;1.20;;;;;;;8.09;100.00;97896.69;6106798;19;20017;-71
2023/12/29 08:18:57;;;;;;;2.83;1.58;;;;;;;8.09;100.00;97885.69;6106406;19;20010;-71
2023/12/29 08:20:59;;;;;;;2.60;1.42;;;;;;;8.15;100.00;97897.16;6109770;19;20400;-71
2023/12/29 08:23:02;;;;;;;2.30;1.40;;;;;;;8.17;100.00;97897.59;6111873;19;20477;-71
2023/12/29 08:25:03;;;;;;;2.83;1.55;;;;;;;8.15;100.00;97894.41;6112316;19;20382;-71
2023/12/29 08:27:03;;;;;;;2.72;1.40;;;;;;;8.14;100.00;97898.34;6111980;19;20014;-71
2023/12/29 08:29:04;;;;;;;3.33;1.48;;;;;;;8.14;100.00;97898.34;6112518;19;20107;-71
2023/12/29 08:31:05;;;;;;;2.35;1.52;;;;;;;8.11;100.00;97877.06;6112347;19;20018;-71
2023/12/29 08:33:05;;;;;;;2.95;1.45;;;;;;;8.11;100.00;97888.09;6111694;19;20041;-71
2023/12/29 08:35:06;;;;;;;2.75;1.20;;;;;;;8.16;100.00;97907.81;6111933;19;20011;-71
2023/12/29 08:37:06;;;;;;;2.75;1.60;;;;;;;8.16;100.00;97907.03;6112098;19;20070;-71
2023/12/29 08:39:06;;;;;;;2.67;1.23;;;;;;;8.20;100.00;97896.06;6112237;19;20567;-71
2023/12/29 08:41:07;;;;;;;2.47;1.05;;;;;;;8.24;100.00;97903.19;6112478;19;20009;-71
2023/12/29 08:43:07;;;;;;;1.55;1.05;;;;;;;8.31;100.00;97891.44;6111326;19;20354;-71
2023/12/29 08:45:08;;;;;;;1.92;1.63;;;;;;;8.29;100.00;97897.34;6113324;19;20020;-71
2023/12/29 08:47:08;;;;;;;2.53;1.42;;;;;;;8.30;100.00;97901.69;6111467;19;20017;-71
2023/12/29 08:49:09;;;;;;;3.00;1.38;;;;;;;8.31;100.00;97900.50;6112385;19;20491;-71
2023/12/29 08:51:09;;;;;;;1.15;1.00;;;;;;;8.37;100.00;97896.28;6111565;19;20003;-71
2023/12/29 08:53:09;;;;;;;2.42;1.25;;;;;;;8.35;100.00;97887.56;6111165;19;20007;-71
2023/12/29 08:55:10;;;;;;;2.58;1.17;;;;;;;8.37;100.00;97899.03;6111962;19;20305;-71
2023/12/29 08:57:10;;;;;;;2.03;1.48;;;;;;;8.34;100.00;97877.69;6111014;19;20021;-71
2023/12/29 08:59:10;;;;;;;1.98;0.98;;;;;;;8.36;100.00;97900.22;6106182;19;20487;-71
2023/12/29 09:01:11;;;;;;;1.40;1.20;;;;;;;8.41;100.00;97888.84;6111442;19;20027;-71
2023/12/29 09:03:11;;;;;;;1.65;0.85;;;;;;;8.41;100.00;97880.56;6109417;19;20381;-71
2023/12/29 09:05:11;;;;;;;2.42;1.15;;;;;;;8.38;100.00;97897.88;6109522;19;20048;-71
2023/12/29 09:07:12;;;;;;;1.63;1.20;;;;;;;8.41;100.00;97891.59;6110267;19;20014;-71
2023/12/29 09:09:12;;;;;;;1.58;1.00;;;;;;;8.43;100.00;97880.97;6108816;19;20010;-71
2023/12/29 09:11:13;;;;;;;2.15;1.15;;;;;;;8.48;100.00;97896.38;6108614;19;20010;-71
2023/12/29 09:13:13;;;;;;;2.00;1.02;;;;;;;8.46;100.00;97900.69;6105963;19;20030;-71
2023/12/29 09:15:13;;;;;;;4.70;1.65;;;;;;;8.47;100.00;97905.84;6105874;19;20021;-71
2023/12/29 09:17:14;;;;;;;2.28;1.42;;;;;;;8.46;100.00;97901.50;6110745;19;20008;-71
2023/12/29 09:19:14;;;;;;;1.80;1.23;;;;;;;8.40;100.00;97892.75;6111157;19;20082;-71
2023/12/29 09:21:14;;;;;;;1.65;1.10;;;;;;;8.42;100.00;97901.44;6111582;19;20011;-71
2023/12/29 09:23:15;;;;;;;5.63;1.58;;;;;;;8.43;100.00;97883.72;6109579;19;20348;-71
2023/12/29 09:25:15;;;;;;;1.75;1.20;;;;;;;8.43;100.00;97886.47;6111157;19;20018;-71
2023/12/29 09:27:17;;;;;;;1.85;1.10;;;;;;;8.42;100.00;97903.41;6111035;19;20025;-71
2023/12/29 09:29:17;;;;;;;3.13;1.90;;;;;;;8.44;100.00;97893.59;6111301;19;20013;-71